Time;durP1;ratioP1;P1;durP2;ratioP2;P2;SDS_P1;SDS_P2;PMS_P1;PMS_P2;Temp;Humidity;BMP_temperature;BMP_pressure;BME280_temperature;BME280_humidity;BME280_pressure;Samples;Min_cycle;Max_cycle;Signal;HPM_P1;HPM_P2
2022/10/14 00:01:48;;;;;;;32.33;20.48;;;9.60;99.90;;;;;;5053135;28;20030;-57
2022/10/14 00:04:14;;;;;;;29.88;20.25;;;9.60;99.90;;;;;;5053192;28;20032;-55
2022/10/14 00:06:39;;;;;;;37.03;23.50;;;9.60;99.90;;;;;;5053144;28;20519;-53
2022/10/14 00:09:08;;;;;;;39.80;23.95;;;9.60;99.90;;;;;;5051329;28;20092;-57
2022/10/14 00:11:35;;;;;;;37.67;21.67;;;9.60;99.90;;;;;;5051556;28;20492;-54
2022/10/14 00:14:12;;;;;;;35.33;23.33;;;9.60;99.90;;;;;;5052822;28;20092;-54
2022/10/14 00:16:40;;;;;;;33.88;21.45;;;9.60;99.90;;;;;;5053131;28;20033;-54
2022/10/14 00:19:07;;;;;;;41.03;23.70;;;9.60;99.90;;;;;;5052754;28;20029;-54
2022/10/14 00:21:33;;;;;;;38.55;24.45;;;9.60;99.90;;;;;;5052792;28;20025;-54
2022/10/14 00:23:59;;;;;;;39.28;25.23;;;9.60;99.90;;;;;;5052438;28;20095;-53
2022/10/14 00:26:36;;;;;;;36.35;23.23;;;9.60;99.90;;;;;;5052739;28;20025;-56
2022/10/14 00:29:05;;;;;;;34.90;23.30;;;9.60;99.90;;;;;;5052558;28;20163;-54
2022/10/14 00:31:31;;;;;;;38.10;23.90;;;9.60;99.90;;;;;;5052542;28;20482;-56
2022/10/14 00:33:57;;;;;;;40.15;23.33;;;9.60;99.90;;;;;;5052468;28;20028;-54
2022/10/14 00:36:24;;;;;;;47.50;23.70;;;9.60;99.90;;;;;;5051296;28;20025;-54
2022/10/14 00:38:51;;;;;;;33.53;23.52;;;9.60;99.90;;;;;;5052453;28;20043;-53
2022/10/14 00:41:20;;;;;;;29.48;22.55;;;9.60;99.90;;;;;;5052277;28;20516;-55
2022/10/14 00:44:04;;;;;;;49.38;25.55;;;9.60;99.90;;;;;;5052327;28;20431;-56
2022/10/14 00:46:38;;;;;;;39.70;23.75;;;9.60;99.90;;;;;;5051210;28;20487;-53
2022/10/14 00:49:34;;;;;;;40.22;22.63;;;9.70;99.90;;;;;;5050859;28;20033;-53
2022/10/14 00:52:04;;;;;;;29.42;20.92;;;9.80;99.90;;;;;;5051547;28;20047;-54
2022/10/14 00:54:38;;;;;;;39.85;24.90;;;9.80;99.90;;;;;;5052283;28;20029;-53
2022/10/14 00:57:04;;;;;;;;;;;9.80;99.90;;;;;;5052651;28;20051;-56
2022/10/14 00:59:31;;;;;;;36.00;22.42;;;9.90;99.90;;;;;;5051897;28;20426;-53
2022/10/14 01:01:57;;;;;;;48.75;24.40;;;9.90;99.90;;;;;;5052333;28;20439;-55
2022/10/14 01:04:22;;;;;;;34.50;23.85;;;10.00;99.90;;;;;;5052037;28;20025;-56
2022/10/14 01:07:04;;;;;;;36.05;22.70;;;10.00;99.90;;;;;;5052039;28;20029;-56
2022/10/14 01:09:51;;;;;;;38.38;20.95;;;10.00;99.90;;;;;;5050370;28;20499;-52
2022/10/14 01:12:43;;;;;;;33.33;22.00;;;10.20;99.90;;;;;;5051704;28;20047;-53
2022/10/14 01:16:03;;;;;;;48.15;25.52;;;10.20;99.90;;;;;;5051615;28;20028;-54
2022/10/14 01:18:51;;;;;;;46.08;26.65;;;10.20;99.90;;;;;;5049166;28;20127;-55
2022/10/14 01:21:30;;;;;;;41.95;26.23;;;10.20;99.90;;;;;;5051530;28;20037;-54
2022/10/14 01:24:14;;;;;;;41.00;26.00;;;10.20;99.90;;;;;;5050307;28;20125;-55
2022/10/14 01:27:07;;;;;;;44.35;25.05;;;10.20;99.90;;;;;;5051507;28;20067;-53
2022/10/14 01:29:58;;;;;;;33.00;25.30;;;10.30;99.90;;;;;;5051590;28;20028;-55
2022/10/14 01:33:04;;;;;;;49.90;27.83;;;10.30;99.90;;;;;;5051276;28;20279;-53
2022/10/14 01:35:38;;;;;;;60.85;29.33;;;10.30;99.90;;;;;;5051080;28;20040;-52
2022/10/14 01:38:27;;;;;;;51.22;29.88;;;10.20;99.90;;;;;;5051311;28;20151;-53
2022/10/14 01:41:01;;;;;;;52.78;31.05;;;10.30;99.90;;;;;;5049928;28;20033;-54
2022/10/14 01:43:28;;;;;;;48.63;28.63;;;10.30;99.90;;;;;;5051327;28;20469;-51
2022/10/14 01:45:55;;;;;;;62.03;33.72;;;10.40;99.90;;;;;;5051086;28;20472;-53
2022/10/14 01:48:25;;;;;;;71.47;41.35;;;10.40;99.90;;;;;;5051090;28;20106;-53
2022/10/14 01:50:53;;;;;;;67.85;40.22;;;10.50;99.90;;;;;;5051109;28;20028;-54
2022/10/14 01:53:31;;;;;;;70.03;36.85;;;10.70;99.90;;;;;;5050982;28;20104;-54
2022/10/14 01:55:58;;;;;;;71.63;39.80;;;10.90;99.90;;;;;;5050867;28;20413;-55
2022/10/14 01:58:27;;;;;;;81.28;44.92;;;11.00;99.90;;;;;;5050911;28;20066;-54
2022/10/14 02:00:53;;;;;;;73.50;45.90;;;11.00;99.90;;;;;;5050630;28;20013;-53
2022/10/14 02:03:18;;;;;;;82.95;49.28;;;11.10;99.90;;;;;;5050716;28;20096;-53
2022/10/14 02:05:47;;;;;;;82.78;47.38;;;11.10;99.90;;;;;;5050819;28;20480;-54
2022/10/14 02:08:32;;;;;;;68.25;45.17;;;11.20;99.90;;;;;;5050847;28;20471;-55
2022/10/14 02:11:16;;;;;;;69.00;43.78;;;11.20;99.90;;;;;;5049934;28;20074;-54
2022/10/14 02:13:47;;;;;;;78.63;43.33;;;11.20;99.90;;;;;;5050681;28;20430;-54
2022/10/14 02:16:29;;;;;;;65.93;38.78;;;11.30;99.90;;;;;;5050423;28;20500;-56
2022/10/14 02:19:14;;;;;;;49.47;33.15;;;11.40;99.90;;;;;;5050660;28;20108;-53
2022/10/14 02:22:09;;;;;;;50.97;32.17;;;11.40;99.90;;;;;;5050555;28;20074;-55
2022/10/14 02:24:36;;;;;;;;;;;11.50;99.90;;;;;;5050020;28;20087;-56
2022/10/14 02:27:06;;;;;;;37.92;27.00;;;11.50;99.90;;;;;;5050130;28;19908;-53
2022/10/14 02:29:33;;;;;;;39.17;24.58;;;11.50;99.90;;;;;;5050373;28;20024;-54
2022/10/14 02:32:02;;;;;;;42.42;27.10;;;11.60;99.90;;;;;;5050165;28;20112;-54
2022/10/14 02:34:28;;;;;;;38.45;26.85;;;11.60;99.90;;;;;;5049001;28;20357;-56
2022/10/14 02:36:55;;;;;;;49.90;24.80;;;11.60;99.90;;;;;;5050271;28;20032;-51
2022/10/14 02:39:26;;;;;;;34.95;23.33;;;11.60;99.90;;;;;;5050741;28;20381;-52
2022/10/14 02:41:52;;;;;;;38.33;23.50;;;11.60;99.90;;;;;;5050299;28;20025;-54
2022/10/14 02:44:18;;;;;;;35.63;23.40;;;11.60;99.90;;;;;;5050068;28;20048;-53
2022/10/14 02:46:44;;;;;;;39.95;22.08;;;11.70;99.90;;;;;;5050111;28;20160;-55
2022/10/14 02:49:09;;;;;;;33.40;20.67;;;11.70;99.90;;;;;;5050215;28;20082;-52
2022/10/14 02:51:35;;;;;;;33.53;21.30;;;11.60;99.90;;;;;;5050191;28;20032;-55
2022/10/14 02:54:01;;;;;;;29.38;18.98;;;11.60;99.90;;;;;;5049893;28;20486;-53
2022/10/14 02:56:27;;;;;;;26.58;18.90;;;11.60;99.90;;;;;;5050133;28;20029;-55
2022/10/14 02:58:52;;;;;;;28.95;18.67;;;11.50;99.90;;;;;;5050261;28;20106;-54
2022/10/14 03:01:18;;;;;;;24.85;18.33;;;11.50;99.90;;;;;;5049947;28;20539;-57
2022/10/14 03:03:44;;;;;;;29.75;19.02;;;11.50;99.90;;;;;;5050065;28;20487;-57
2022/10/14 03:06:09;;;;;;;27.65;19.75;;;11.40;99.90;;;;;;5049983;28;20037;-54
2022/10/14 03:08:35;;;;;;;27.27;19.48;;;11.40;99.90;;;;;;5049946;28;20025;-54
2022/10/14 03:11:13;;;;;;;25.38;18.05;;;11.40;99.90;;;;;;5050064;28;20396;-53
2022/10/14 03:13:38;;;;;;;20.05;15.25;;;11.40;99.90;;;;;;5054249;28;20024;-56
2022/10/14 03:16:04;;;;;;;20.05;15.02;;;11.50;99.90;;;;;;5054204;28;20028;-53
2022/10/14 03:18:30;;;;;;;21.75;14.95;;;11.40;99.90;;;;;;5054112;28;20411;-53
2022/10/14 03:20:55;;;;;;;25.55;14.48;;;11.40;99.90;;;;;;5053748;28;20021;-54
2022/10/14 03:23:21;;;;;;;22.92;14.75;;;11.50;99.90;;;;;;5053699;28;20021;-53
2022/10/14 03:25:47;;;;;;;16.55;13.40;;;11.50;99.90;;;;;;5053922;28;20029;-56
2022/10/14 03:28:12;;;;;;;18.83;14.32;;;11.50;99.90;;;;;;5053677;28;20021;-53
2022/10/14 03:30:38;;;;;;;20.90;14.23;;;11.50;99.90;;;;;;5053627;28;20075;-54
2022/10/14 03:33:04;;;;;;;22.88;15.32;;;11.50;99.90;;;;;;5053670;28;20029;-52
2022/10/14 03:35:30;;;;;;;19.70;13.43;;;11.60;99.90;;;;;;5054366;28;20025;-53
2022/10/14 03:37:58;;;;;;;18.65;13.32;;;11.60;99.90;;;;;;5053965;28;20017;-54
2022/10/14 03:40:23;;;;;;;17.05;13.32;;;11.60;99.90;;;;;;5053469;28;20108;-55
2022/10/14 03:42:49;;;;;;;16.27;11.95;;;11.60;99.90;;;;;;5053452;28;20108;-54
2022/10/14 03:45:15;;;;;;;15.85;12.10;;;11.50;99.90;;;;;;5053411;28;20059;-53
2022/10/14 03:47:41;;;;;;;22.60;13.32;;;11.60;99.90;;;;;;5053374;28;20036;-54
2022/10/14 03:50:06;;;;;;;14.25;11.48;;;11.50;99.90;;;;;;5053217;28;20017;-56
2022/10/14 03:52:32;;;;;;;16.42;12.48;;;11.40;99.90;;;;;;5053223;28;20536;-53
2022/10/14 03:54:58;;;;;;;16.52;10.68;;;11.40;99.90;;;;;;5053212;28;20029;-52
2022/10/14 03:57:24;;;;;;;14.18;10.98;;;11.40;99.90;;;;;;5053355;28;20044;-55
2022/10/14 03:59:49;;;;;;;14.13;10.70;;;11.50;99.90;;;;;;5053102;28;20044;-53
2022/10/14 04:02:15;;;;;;;15.38;9.85;;;11.50;99.90;;;;;;5051803;28;20037;-52
2022/10/14 04:04:41;;;;;;;14.80;10.43;;;11.40;99.90;;;;;;5053139;28;20037;-52
2022/10/14 04:07:06;;;;;;;19.05;12.90;;;11.50;99.90;;;;;;5051700;28;20028;-55
2022/10/14 04:09:32;;;;;;;14.70;11.98;;;11.40;99.90;;;;;;5052731;28;20041;-56
2022/10/14 04:11:57;;;;;;;19.83;13.05;;;11.40;99.90;;;;;;5052704;28;20036;-53
2022/10/14 04:14:25;;;;;;;15.35;10.57;;;11.40;99.90;;;;;;5053071;28;20033;-52
2022/10/14 04:16:51;;;;;;;13.07;8.77;;;11.50;99.90;;;;;;5052984;28;20412;-52
2022/10/14 04:19:18;;;;;;;11.93;8.82;;;11.60;99.90;;;;;;5052712;28;20388;-54
2022/10/14 04:21:43;;;;;;;11.70;9.27;;;11.60;99.90;;;;;;5052849;28;20025;-55
2022/10/14 04:24:09;;;;;;;12.25;8.15;;;11.50;99.90;;;;;;5052600;28;20059;-55
2022/10/14 04:26:35;;;;;;;12.93;8.20;;;11.60;99.90;;;;;;5051348;28;20029;-52
2022/10/14 04:29:01;;;;;;;19.15;8.95;;;11.60;99.90;;;;;;5052569;28;20105;-54
2022/10/14 04:31:26;;;;;;;8.48;7.43;;;11.60;99.90;;;;;;5052567;28;20036;-57
2022/10/14 04:33:52;;;;;;;8.10;7.28;;;11.60;99.90;;;;;;5052731;28;20032;-56
2022/10/14 04:36:18;;;;;;;15.73;9.88;;;11.60;99.90;;;;;;5052345;28;20021;-55
2022/10/14 04:38:43;;;;;;;9.45;7.15;;;11.60;99.90;;;;;;5052336;28;20388;-53
2022/10/14 04:41:09;;;;;;;10.73;7.95;;;11.60;99.90;;;;;;5052331;28;20078;-54
2022/10/14 04:43:35;;;;;;;13.27;8.80;;;11.60;99.90;;;;;;5052391;28;20032;-57
2022/10/14 04:46:00;;;;;;;9.23;7.00;;;11.50;99.90;;;;;;5052151;28;20035;-54
2022/10/14 04:48:26;;;;;;;9.25;6.53;;;11.60;99.90;;;;;;5052595;28;20100;-56
2022/10/14 04:50:53;;;;;;;13.23;7.97;;;11.60;99.90;;;;;;5052288;28;20123;-55
2022/10/14 04:53:19;;;;;;;11.15;9.68;;;11.60;99.90;;;;;;5051948;28;20025;-57
2022/10/14 04:55:48;;;;;;;9.38;7.85;;;11.60;99.90;;;;;;5051061;28;20049;-55
2022/10/14 04:58:14;;;;;;;12.90;10.50;;;11.60;99.90;;;;;;5052017;28;20477;-54
2022/10/14 05:00:40;;;;;;;13.38;10.05;;;11.60;99.90;;;;;;5052064;28;20365;-56
2022/10/14 05:03:06;;;;;;;58.78;41.03;;;11.60;99.90;;;;;;5050355;28;20087;-54
2022/10/14 05:05:31;;;;;;;24.77;19.27;;;11.50;99.90;;;;;;5052302;28;20028;-56
2022/10/14 05:07:57;;;;;;;15.27;13.77;;;11.50;99.90;;;;;;5051969;28;20021;-57
2022/10/14 05:10:23;;;;;;;12.98;11.32;;;11.50;99.90;;;;;;5051718;28;20083;-53
2022/10/14 05:12:48;;;;;;;12.68;7.57;;;11.50;99.90;;;;;;5051668;28;20038;-57
2022/10/14 05:15:14;;;;;;;9.98;8.40;;;11.50;99.90;;;;;;5050272;28;20014;-57
2022/10/14 05:17:43;;;;;;;8.57;6.68;;;11.50;99.90;;;;;;5052346;28;20029;-55
2022/10/14 05:20:10;;;;;;;9.85;7.15;;;11.60;99.90;;;;;;5051376;28;20017;-55
2022/10/14 05:22:35;;;;;;;8.75;6.75;;;11.50;99.90;;;;;;5051618;28;20025;-55
2022/10/14 05:25:01;;;;;;;10.13;7.30;;;11.60;99.90;;;;;;5051401;28;20348;-55
2022/10/14 05:27:26;;;;;;;7.78;6.28;;;11.60;99.90;;;;;;5051647;28;20028;-57
2022/10/14 05:29:53;;;;;;;13.00;6.95;;;11.70;99.90;;;;;;5051574;28;20035;-53
2022/10/14 05:32:19;;;;;;;7.35;5.93;;;11.60;99.90;;;;;;5049835;28;20040;-57
2022/10/14 05:34:44;;;;;;;7.13;5.07;;;11.60;99.90;;;;;;5050797;28;20025;-56
2022/10/14 05:37:10;;;;;;;10.70;5.90;;;11.60;99.90;;;;;;5051282;28;20032;-57
2022/10/14 05:39:36;;;;;;;7.95;6.38;;;11.60;99.90;;;;;;5051239;28;20013;-53
2022/10/14 05:42:01;;;;;;;8.10;7.15;;;11.60;99.90;;;;;;5051201;28;20043;-53
2022/10/14 05:44:27;;;;;;;9.88;6.28;;;11.60;99.90;;;;;;5051356;28;20374;-57
2022/10/14 05:46:53;;;;;;;9.93;7.10;;;11.60;99.90;;;;;;5051170;28;20021;-55
2022/10/14 05:49:18;;;;;;;87.13;35.58;;;11.60;99.90;;;;;;5050893;28;20021;-55
2022/10/14 05:51:44;;;;;;;35.38;17.40;;;11.60;99.90;;;;;;5051049;28;20112;-55
2022/10/14 05:54:10;;;;;;;12.65;7.72;;;11.60;99.90;;;;;;5050922;28;20120;-54
2022/10/14 05:56:36;;;;;;;12.73;6.63;;;11.60;99.90;;;;;;5050439;28;20017;-55
2022/10/14 05:59:02;;;;;;;9.13;6.78;;;11.50;99.90;;;;;;5050448;28;20432;-54
2022/10/14 06:01:27;;;;;;;6.65;5.90;;;11.60;99.90;;;;;;5050975;28;20017;-54
2022/10/14 06:03:53;;;;;;;9.13;5.47;;;11.60;99.90;;;;;;5050834;28;20104;-54
2022/10/14 06:06:19;;;;;;;7.43;5.78;;;11.50;99.90;;;;;;5050586;28;20029;-55
2022/10/14 06:08:45;;;;;;;14.27;6.85;;;11.50;99.90;;;;;;5050566;28;20112;-54
2022/10/14 06:11:11;;;;;;;10.23;6.38;;;11.50;99.90;;;;;;5050719;28;20212;-56
2022/10/14 06:13:37;;;;;;;9.30;7.22;;;11.40;99.90;;;;;;5050690;28;20099;-55
2022/10/14 06:16:07;;;;;;;7.88;6.78;;;11.50;99.90;;;;;;5050345;28;20059;-54
2022/10/14 06:18:34;;;;;;;10.23;6.65;;;11.50;99.90;;;;;;5050708;28;20397;-55
2022/10/14 06:21:00;;;;;;;12.68;7.60;;;11.50;99.90;;;;;;5050386;28;20025;-54
2022/10/14 06:23:26;;;;;;;7.40;6.30;;;11.50;99.90;;;;;;5050441;28;20084;-54
2022/10/14 06:25:52;;;;;;;8.90;6.32;;;11.50;99.90;;;;;;5050467;28;20195;-54
2022/10/14 06:28:17;;;;;;;12.23;7.30;;;11.50;99.90;;;;;;5050458;28;20066;-53
2022/10/14 06:30:51;;;;;;;11.63;7.32;;;11.60;99.90;;;;;;5050378;28;20025;-54
2022/10/14 06:33:16;;;;;;;15.50;11.70;;;11.60;99.90;;;;;;5050143;28;20040;-52
2022/10/14 06:35:42;;;;;;;15.07;8.23;;;11.60;99.90;;;;;;5050381;28;20025;-56
2022/10/14 06:38:08;;;;;;;15.82;8.77;;;11.70;99.90;;;;;;5050327;28;20021;-56
2022/10/14 06:40:35;;;;;;;15.65;9.25;;;11.70;99.90;;;;;;5050430;28;20017;-53
2022/10/14 06:43:01;;;;;;;15.75;11.40;;;11.80;99.90;;;;;;5050179;28;20504;-54
2022/10/14 06:45:27;;;;;;;13.82;11.90;;;11.80;99.90;;;;;;5050263;28;20044;-54
2022/10/14 06:47:52;;;;;;;15.57;11.45;;;11.90;99.90;;;;;;5050284;28;20079;-55
2022/10/14 06:50:18;;;;;;;11.95;9.60;;;12.00;99.90;;;;;;5048680;28;20256;-52
2022/10/14 06:52:45;;;;;;;9.88;8.38;;;12.10;99.90;;;;;;5050180;28;20079;-55
2022/10/14 06:55:11;;;;;;;12.40;8.68;;;12.20;99.90;;;;;;5050068;28;20562;-56
2022/10/14 06:57:37;;;;;;;12.85;8.30;;;12.30;99.90;;;;;;5048771;28;20448;-54
2022/10/14 07:00:04;;;;;;;9.23;8.15;;;12.30;99.90;;;;;;5049863;28;20033;-54
2022/10/14 07:02:30;;;;;;;11.38;7.60;;;12.50;99.90;;;;;;5050194;28;20354;-56
2022/10/14 07:04:55;;;;;;;11.82;7.38;;;12.70;99.90;;;;;;5048708;28;20116;-55
2022/10/14 07:07:21;;;;;;;7.85;6.60;;;12.90;99.90;;;;;;5049903;28;20032;-53
2022/10/14 07:09:46;;;;;;;7.68;5.97;;;13.00;99.90;;;;;;5049799;28;20056;-54
2022/10/14 07:12:12;;;;;;;11.93;5.78;;;13.20;99.90;;;;;;5049868;28;20488;-56
2022/10/14 07:14:38;;;;;;;6.47;5.28;;;13.30;99.90;;;;;;5050009;28;20321;-54
2022/10/14 07:17:03;;;;;;;6.55;5.95;;;13.40;99.90;;;;;;5049875;28;20029;-51
2022/10/14 07:19:29;;;;;;;6.18;4.45;;;13.60;99.90;;;;;;5049938;28;20548;-55
2022/10/14 07:21:55;;;;;;;8.70;4.97;;;13.60;99.90;;;;;;5050119;28;20029;-54
2022/10/14 07:24:20;;;;;;;10.70;5.07;;;13.70;99.90;;;;;;5049700;28;20408;-54
2022/10/14 07:26:46;;;;;;;7.25;4.18;;;13.70;99.90;;;;;;5049737;28;20431;-53
2022/10/14 07:29:11;;;;;;;9.25;4.65;;;13.80;99.90;;;;;;5049633;28;20524;-53
2022/10/14 07:31:37;;;;;;;4.25;3.85;;;13.80;99.90;;;;;;5049827;28;20104;-55
2022/10/14 07:34:03;;;;;;;4.35;3.92;;;14.00;99.90;;;;;;5048361;28;20427;-52
2022/10/14 07:36:29;;;;;;;5.85;4.07;;;14.00;99.90;;;;;;5049728;28;20423;-56
2022/10/14 07:38:54;;;;;;;5.15;4.45;;;13.90;99.90;;;;;;5049889;28;20021;-55
2022/10/14 07:41:23;;;;;;;10.38;5.07;;;13.90;99.90;;;;;;5049647;28;20075;-55
2022/10/14 07:43:56;;;;;;;7.47;4.20;;;13.80;99.90;;;;;;5049675;28;20029;-53
2022/10/14 07:46:28;;;;;;;5.90;4.65;;;13.90;99.90;;;;;;5049752;28;20028;-52
2022/10/14 07:48:58;;;;;;;7.63;5.10;;;13.90;99.90;;;;;;5048353;28;20031;-56
2022/10/14 07:51:25;;;;;;;7.72;4.55;;;13.90;99.90;;;;;;5049524;28;20028;-56
2022/10/14 07:53:51;;;;;;;8.77;4.15;;;13.90;99.90;;;;;;5049588;28;20108;-53
2022/10/14 07:56:18;;;;;;;5.65;4.03;;;14.00;99.90;;;;;;5048157;28;20025;-53
2022/10/14 07:58:43;;;;;;;5.25;4.20;;;14.00;99.90;;;;;;5052320;28;20096;-54
2022/10/14 08:01:09;;;;;;;6.65;4.47;;;14.10;99.90;;;;;;5053215;28;20105;-52
2022/10/14 08:03:35;;;;;;;8.90;4.78;;;14.30;99.90;;;;;;5053163;28;20423;-53
2022/10/14 08:06:02;;;;;;;10.52;3.53;;;14.30;99.90;;;;;;5053060;28;20564;-55
2022/10/14 08:08:28;;;;;;;8.63;3.83;;;14.50;99.90;;;;;;5052641;28;20025;-54
2022/10/14 08:11:05;;;;;;;6.78;3.53;;;14.70;99.90;;;;;;5053080;28;20249;-55
2022/10/14 08:13:32;;;;;;;4.82;3.38;;;14.80;99.90;;;;;;5053304;28;20039;-56
2022/10/14 08:15:58;;;;;;;7.70;3.17;;;14.90;99.90;;;;;;5052849;28;20017;-56
2022/10/14 08:18:24;;;;;;;5.22;3.55;;;14.80;99.90;;;;;;5052984;28;20017;-52
2022/10/14 08:20:50;;;;;;;4.07;3.45;;;14.70;99.90;;;;;;5051719;28;20021;-54
2022/10/14 08:23:16;;;;;;;3.45;2.80;;;14.70;99.90;;;;;;5052571;28;20054;-54
2022/10/14 08:25:42;;;;;;;7.00;3.20;;;14.90;99.90;;;;;;5052661;28;20032;-53
2022/10/14 08:28:08;;;;;;;7.72;2.90;;;15.00;99.90;;;;;;5052761;28;20028;-55
2022/10/14 08:30:34;;;;;;;12.35;3.28;;;15.20;99.90;;;;;;5052909;28;20025;-56
2022/10/14 08:32:59;;;;;;;5.47;2.97;;;15.20;99.90;;;;;;5052383;28;20025;-54
2022/10/14 08:35:25;;;;;;;4.53;2.90;;;15.10;99.90;;;;;;5052392;28;20028;-55
2022/10/14 08:37:58;;;;;;;6.78;2.88;;;15.10;99.90;;;;;;5052561;28;20095;-56
2022/10/14 08:40:27;;;;;;;4.15;3.20;;;15.40;99.90;;;;;;5052532;28;20017;-52
2022/10/14 08:43:01;;;;;;;5.18;2.72;;;15.30;99.90;;;;;;5052436;28;20032;-55
2022/10/14 08:45:35;;;;;;;8.68;3.63;;;15.10;99.90;;;;;;5051319;28;20025;-55
2022/10/14 08:48:09;;;;;;;6.90;3.33;;;15.20;99.90;;;;;;5052139;28;20028;-56
2022/10/14 08:50:57;;;;;;;5.50;4.18;;;15.10;99.90;;;;;;5052315;28;20029;-52
2022/10/14 08:53:33;;;;;;;5.55;3.75;;;15.40;99.90;;;;;;5052128;28;20036;-55
2022/10/14 08:56:01;;;;;;;7.88;3.20;;;15.50;99.90;;;;;;5052203;28;20096;-55
2022/10/14 08:58:46;;;;;;;21.30;4.15;;;15.40;99.90;;;;;;5052142;28;20021;-55
2022/10/14 09:01:41;;;;;;;13.15;4.90;;;15.20;99.90;;;;;;5052121;28;20037;-55
2022/10/14 09:04:12;;;;;;;7.32;4.10;;;15.50;99.90;;;;;;5051651;28;20108;-54
2022/10/14 09:06:42;;;;;;;5.72;3.78;;;15.60;99.90;;;;;;5052149;28;20384;-53
2022/10/14 09:09:11;;;;;;;12.18;4.63;;;15.60;99.90;;;;;;5050646;28;20047;-53
2022/10/14 09:11:44;;;;;;;6.72;4.32;;;15.40;99.90;;;;;;5051731;28;20021;-54
2022/10/14 09:14:16;;;;;;;12.03;4.50;;;15.60;99.90;;;;;;5050463;28;20032;-53
2022/10/14 09:16:45;;;;;;;7.15;4.25;;;15.60;99.90;;;;;;5051708;28;20294;-53
2022/10/14 09:19:35;;;;;;;5.78;3.28;;;16.10;99.90;;;;;;5051525;28;20037;-53
2022/10/14 09:22:02;;;;;;;9.15;5.47;;;16.40;99.90;;;;;;5050446;28;20037;-54
2022/10/14 09:24:34;;;;;;;11.02;4.15;;;16.20;99.90;;;;;;5051548;28;20029;-54
2022/10/14 09:27:07;;;;;;;6.50;4.85;;;16.20;99.90;;;;;;5051525;28;20021;-55
2022/10/14 09:29:46;;;;;;;7.97;4.28;;;16.40;99.90;;;;;;5051533;28;20025;-56
2022/10/14 09:32:25;;;;;;;8.80;3.92;;;16.50;99.90;;;;;;5051313;28;20028;-55
2022/10/14 09:34:51;;;;;;;41.97;20.75;;;17.10;99.90;;;;;;5051378;28;20028;-54
2022/10/14 09:37:30;;;;;;;4.88;3.42;;;17.20;99.90;;;;;;5050958;28;20464;-57
2022/10/14 09:40:01;;;;;;;6.60;3.08;;;17.50;99.90;;;;;;5051309;28;20016;-57
2022/10/14 09:42:56;;;;;;;7.57;3.88;;;17.50;99.90;;;;;;5051295;28;20028;-57
2022/10/14 09:45:24;;;;;;;9.25;4.10;;;17.60;99.90;;;;;;5050997;28;20025;-57
2022/10/14 09:47:58;;;;;;;8.45;4.07;;;17.60;99.90;;;;;;5051103;28;20091;-56
2022/10/14 09:50:45;;;;;;;19.33;8.57;;;17.40;99.90;;;;;;5050692;28;20021;-54
2022/10/14 09:53:25;;;;;;;5.93;4.18;;;17.20;99.90;;;;;;5050804;28;20450;-55
2022/10/14 09:56:00;;;;;;;4.97;3.65;;;17.50;99.90;;;;;;5051069;28;20021;-57
2022/10/14 09:58:54;;;;;;;8.38;4.00;;;17.50;99.90;;;;;;5051152;28;20032;-56
2022/10/14 10:01:26;;;;;;;7.82;4.60;;;17.50;99.90;;;;;;5050777;28;20017;-55
2022/10/14 10:03:53;;;;;;;6.68;3.92;;;17.60;99.90;;;;;;5051053;28;20021;-55
2022/10/14 10:06:25;;;;;;;7.82;5.07;;;18.10;99.90;;;;;;5050673;28;20041;-57
2022/10/14 10:08:57;;;;;;;16.40;7.28;;;18.40;99.90;;;;;;5050770;28;20114;-53
2022/10/14 10:11:37;;;;;;;7.28;4.28;;;18.40;99.90;;;;;;5050674;28;20017;-57
2022/10/14 10:14:35;;;;;;;12.02;3.55;;;19.40;99.90;;;;;;5049198;28;20021;-53
2022/10/14 10:17:06;;;;;;;5.75;3.80;;;20.50;97.80;;;;;;5049011;28;20044;-55
2022/10/14 10:19:37;;;;;;;6.35;3.28;;;21.50;95.20;;;;;;5050712;28;20395;-58
2022/10/14 10:22:18;;;;;;;12.55;3.75;;;23.30;92.10;;;;;;5050194;28;20025;-58
2022/10/14 10:24:47;;;;;;;9.05;4.25;;;24.70;88.40;;;;;;5050565;28;20033;-58
2022/10/14 10:27:36;;;;;;;10.77;3.75;;;25.30;86.40;;;;;;5050374;28;20072;-58
2022/10/14 10:30:20;;;;;;;6.00;3.10;;;24.90;80.70;;;;;;5050321;28;20040;-58
2022/10/14 10:32:49;;;;;;;7.25;2.90;;;25.50;79.10;;;;;;5050438;28;20028;-57
2022/10/14 10:35:44;;;;;;;11.13;2.72;;;27.10;77.50;;;;;;5050328;28;20021;-58
2022/10/14 10:38:30;;;;;;;8.55;3.10;;;26.80;75.40;;;;;;5050286;28;20029;-58
2022/10/14 10:41:20;;;;;;;7.60;3.00;;;26.70;72.20;;;;;;5050289;28;20021;-58
2022/10/14 10:43:49;;;;;;;10.10;2.70;;;27.80;72.00;;;;;;5050540;28;20075;-59
2022/10/14 10:46:15;;;;;;;12.95;3.13;;;29.80;65.40;;;;;;5050032;28;20452;-58
2022/10/14 10:48:54;;;;;;;4.80;2.55;;;30.30;60.10;;;;;;5050233;28;20040;-58
2022/10/14 10:51:22;;;;;;;9.73;3.25;;;29.90;60.70;;;;;;5050027;28;20025;-57
2022/10/14 10:54:05;;;;;;;10.52;3.17;;;29.00;61.60;;;;;;5050308;28;20032;-58
2022/10/14 10:56:37;;;;;;;9.77;3.20;;;26.30;64.00;;;;;;5050653;28;20028;-56
2022/10/14 10:59:32;;;;;;;5.10;2.78;;;24.90;69.30;;;;;;5049978;28;20019;-59
2022/10/14 11:02:03;;;;;;;5.97;2.85;;;24.20;68.20;;;;;;5049202;28;20060;-58
2022/10/14 11:04:44;;;;;;;8.50;2.75;;;25.40;66.20;;;;;;5050067;28;20029;-58
2022/10/14 11:13:37;;;;;;;4.90;1.55;;;27.10;62.60;;;;;;5049740;28;20569;-58
2022/10/14 11:16:43;;;;;;;8.45;2.17;;;29.20;60.00;;;;;;5049778;28;20478;-58
2022/10/14 11:19:27;;;;;;;2.83;1.48;;;29.00;60.10;;;;;;5049989;28;20546;-56
2022/10/14 11:22:03;;;;;;;4.15;1.63;;;30.40;53.30;;;;;;5049820;28;20117;-56
2022/10/14 11:24:59;;;;;;;6.70;2.30;;;31.20;51.20;;;;;;5049948;28;20111;-55
2022/10/14 11:27:42;;;;;;;2.00;1.17;;;30.20;49.90;;;;;;5049869;28;20017;-57
2022/10/14 11:30:18;;;;;;;1.30;1.20;;;29.70;51.30;;;;;;5049837;28;20025;-56
2022/10/14 11:33:15;;;;;;;3.03;1.60;;;31.40;49.00;;;;;;5051095;28;20082;-57
2022/10/14 11:36:23;;;;;;;5.40;1.23;;;32.50;49.80;;;;;;5052376;28;20075;-56
2022/10/14 11:39:09;;;;;;;2.85;1.02;;;32.30;48.70;;;;;;5052214;28;20036;-56
2022/10/14 11:42:10;;;;;;;7.53;1.58;;;32.40;46.10;;;;;;5053553;28;20032;-56
2022/10/14 11:44:41;;;;;;;5.30;1.52;;;32.90;46.10;;;;;;5052291;28;20036;-57
2022/10/14 11:47:27;;;;;;;5.75;1.25;;;31.80;46.60;;;;;;5053500;28;20017;-55
2022/10/14 11:50:15;;;;;;;3.70;1.23;;;32.50;43.70;;;;;;5052207;28;20029;-57
2022/10/14 11:53:13;;;;;;;2.25;1.00;;;32.50;45.00;;;;;;5053354;28;20055;-56
2022/10/14 11:55:45;;;;;;;3.00;1.77;;;29.90;46.60;;;;;;5053290;28;20024;-56
2022/10/14 11:58:19;;;;;;;2.05;1.58;;;31.30;45.40;;;;;;5053180;28;20020;-56
2022/10/14 12:01:13;;;;;;;1.90;0.90;;;32.10;43.70;;;;;;5053209;28;20033;-55
2022/10/14 12:03:42;;;;;;;3.20;1.10;;;32.50;43.70;;;;;;5053205;28;20017;-58
2022/10/14 12:06:29;;;;;;;1.45;1.13;;;32.80;42.60;;;;;;5052870;28;20021;-58
2022/10/14 12:09:18;;;;;;;5.78;0.82;;;30.50;45.80;;;;;;5053093;28;20492;-58
2022/10/14 12:12:06;;;;;;;3.80;0.95;;;32.10;45.10;;;;;;5052793;28;20029;-58
2022/10/14 12:14:34;;;;;;;3.10;1.10;;;32.60;44.20;;;;;;5052900;28;20024;-58
2022/10/14 12:17:04;;;;;;;2.42;1.10;;;33.30;43.10;;;;;;5052756;28;20194;-57
2022/10/14 12:19:31;;;;;;;3.28;1.05;;;33.60;42.50;;;;;;5053042;28;20025;-58
2022/10/14 12:22:06;;;;;;;2.00;1.00;;;33.90;43.00;;;;;;5052617;28;20116;-58
2022/10/14 12:24:37;;;;;;;2.25;1.00;;;32.80;42.30;;;;;;5052821;28;20025;-58
2022/10/14 12:27:08;;;;;;;2.65;1.25;;;30.90;42.40;;;;;;5052787;28;20120;-58
2022/10/14 12:29:39;;;;;;;2.20;1.05;;;29.80;42.80;;;;;;5052718;28;20021;-58
2022/10/14 12:32:15;;;;;;;9.45;1.48;;;31.00;44.20;;;;;;5052481;28;20029;-59
2022/10/14 12:34:46;;;;;;;10.73;2.28;;;30.40;44.00;;;;;;5052803;28;20033;-59
2022/10/14 12:37:30;;;;;;;1.50;1.00;;;30.70;42.40;;;;;;5052350;28;20083;-58
2022/10/14 12:40:02;;;;;;;2.72;1.00;;;31.80;42.40;;;;;;5052496;28;20021;-58
2022/10/14 12:42:30;;;;;;;1.25;0.80;;;33.80;41.00;;;;;;5052430;28;20091;-58
2022/10/14 12:45:00;;;;;;;2.83;0.90;;;34.10;40.80;;;;;;5052218;28;20029;-59
2022/10/14 12:47:35;;;;;;;2.53;1.00;;;33.50;42.70;;;;;;5052563;28;20032;-58
2022/10/14 12:50:27;;;;;;;4.60;1.58;;;34.10;40.60;;;;;;5052024;28;20052;-58
2022/10/14 12:53:01;;;;;;;16.73;2.75;;;31.70;44.60;;;;;;5051018;28;20029;-58
2022/10/14 12:55:31;;;;;;;3.17;1.58;;;30.10;48.10;;;;;;5050807;28;20071;-57
2022/10/14 12:58:00;;;;;;;2.15;1.23;;;29.30;47.70;;;;;;5052121;28;20093;-58
2022/10/14 13:00:37;;;;;;;3.03;1.08;;;28.70;47.80;;;;;;5052198;28;20029;-58
2022/10/14 13:03:13;;;;;;;8.80;1.20;;;28.80;45.50;;;;;;5051876;28;20411;-58
2022/10/14 13:05:41;;;;;;;8.55;1.38;;;28.60;45.20;;;;;;5052093;28;20028;-58
2022/10/14 13:08:19;;;;;;;2.25;1.20;;;28.20;46.20;;;;;;5052000;28;20017;-58